createdAt,value
2023-04-22T00:01:36.616Z,101051.00
2023-04-22T00:04:03.835Z,101058.00
2023-04-22T00:06:32.064Z,101048.00
2023-04-22T00:08:58.953Z,101047.00
2023-04-22T00:11:26.290Z,101035.00
2023-04-22T00:13:53.217Z,101029.00
2023-04-22T00:16:20.264Z,101044.00
2023-04-22T00:18:47.110Z,101042.00
2023-04-22T00:21:13.828Z,101017.00
2023-04-22T00:23:40.689Z,101026.00
2023-04-22T00:26:07.452Z,101021.00
2023-04-22T00:28:34.552Z,101023.00
2023-04-22T00:31:03.364Z,101008.00
2023-04-22T00:33:31.014Z,100999.00
2023-04-22T00:35:57.817Z,100997.00
2023-04-22T00:38:24.807Z,100994.00
2023-04-22T00:40:51.550Z,100997.00
2023-04-22T00:43:18.374Z,100992.00
2023-04-22T00:45:45.133Z,100988.00
2023-04-22T00:48:12.875Z,100990.00
2023-04-22T00:50:39.714Z,100987.00
2023-04-22T00:53:06.518Z,100990.00
2023-04-22T00:55:33.317Z,100990.00
2023-04-22T00:58:00.879Z,100989.00
2023-04-22T01:00:28.406Z,100972.00
2023-04-22T01:02:55.967Z,100978.00
2023-04-22T01:05:24.047Z,100977.00
2023-04-22T01:07:51.286Z,100973.00
2023-04-22T01:10:18.608Z,100968.00
2023-04-22T01:12:45.715Z,100969.00
2023-04-22T01:15:12.567Z,100964.00
2023-04-22T01:17:39.440Z,100971.00
2023-04-22T01:20:10.104Z,100971.00
2023-04-22T01:22:40.674Z,100965.00
2023-04-22T01:25:08.832Z,100967.00
2023-04-22T01:27:36.213Z,100975.00
2023-04-22T01:30:04.188Z,100958.00
2023-04-22T01:32:31.160Z,100954.00
2023-04-22T01:34:58.070Z,100955.00
2023-04-22T01:37:24.832Z,100953.00
2023-04-22T01:39:51.693Z,100948.00
2023-04-22T01:42:19.028Z,100961.00
2023-04-22T01:44:46.237Z,100955.00
2023-04-22T01:47:13.712Z,100953.00
2023-04-22T01:49:40.842Z,100926.00
2023-04-22T01:52:07.953Z,100929.00
2023-04-22T01:54:35.360Z,100935.00
2023-04-22T01:57:06.694Z,100935.00
2023-04-22T01:59:33.459Z,100916.00
2023-04-22T02:02:00.690Z,100909.00
2023-04-22T02:04:27.606Z,100916.00
2023-04-22T02:06:54.366Z,100904.00
2023-04-22T02:09:21.103Z,100910.00
2023-04-22T02:11:47.849Z,100908.00
2023-04-22T02:14:14.614Z,100911.00
2023-04-22T02:16:42.406Z,100903.00
2023-04-22T02:19:09.135Z,100907.00
2023-04-22T02:21:36.217Z,100911.00
2023-04-22T02:24:02.952Z,100923.00
2023-04-22T02:26:30.809Z,100917.00
2023-04-22T02:28:57.572Z,100907.00
2023-04-22T02:31:24.336Z,100896.00
2023-04-22T02:33:51.103Z,100898.00
2023-04-22T02:36:17.836Z,100890.00
2023-04-22T02:38:44.635Z,100895.00
2023-04-22T02:41:11.421Z,100891.00
2023-04-22T02:43:38.190Z,100895.00
2023-04-22T02:46:05.008Z,100894.00
2023-04-22T02:48:31.816Z,100885.00
2023-04-22T02:50:58.593Z,100886.00
2023-04-22T02:53:25.417Z,100877.00
2023-04-22T02:55:52.390Z,100867.00
2023-04-22T02:58:19.454Z,100868.00
2023-04-22T03:00:46.288Z,100861.00
2023-04-22T03:03:13.463Z,100866.00
2023-04-22T03:05:40.622Z,100863.00
2023-04-22T03:08:07.399Z,100872.00
2023-04-22T03:10:34.163Z,100859.00
2023-04-22T03:13:01.042Z,100859.00
2023-04-22T03:15:27.818Z,100852.00
2023-04-22T03:17:54.728Z,100850.00
2023-04-22T03:20:21.840Z,100852.00
2023-04-22T03:22:48.622Z,100851.00
2023-04-22T03:25:15.387Z,100847.00
2023-04-22T03:27:42.167Z,100834.00
2023-04-22T03:30:09.258Z,100828.00
2023-04-22T03:32:36.058Z,100837.00
2023-04-22T03:35:02.894Z,100835.00
2023-04-22T03:37:29.661Z,100832.00
2023-04-22T03:39:56.391Z,100821.00
2023-04-22T03:42:23.134Z,100827.00
2023-04-22T03:44:49.876Z,100832.00
2023-04-22T03:47:16.732Z,100823.00
2023-04-22T03:49:43.996Z,100813.00
2023-04-22T03:52:10.752Z,100830.00
2023-04-22T03:54:37.493Z,100813.00
2023-04-22T03:57:04.295Z,100812.00
2023-04-22T03:59:31.070Z,100803.00
2023-04-22T04:01:57.968Z,100794.00
2023-04-22T04:04:25.319Z,100781.00
2023-04-22T04:06:52.440Z,100795.00
2023-04-22T04:09:19.264Z,100788.00
2023-04-22T04:11:46.062Z,100779.00
2023-04-22T04:14:12.886Z,100771.00
2023-04-22T04:16:39.701Z,100773.00
2023-04-22T04:19:06.891Z,100773.00
2023-04-22T04:21:34.187Z,100773.00
2023-04-22T04:24:00.935Z,100774.00
2023-04-22T04:26:27.771Z,100768.00
2023-04-22T04:28:55.470Z,100766.00
2023-04-22T04:31:24.746Z,100766.00
2023-04-22T04:33:52.434Z,100767.00
2023-04-22T04:36:19.842Z,100758.00
2023-04-22T04:38:47.731Z,100755.00
2023-04-22T04:41:14.511Z,100754.00
2023-04-22T04:43:41.310Z,100763.00
2023-04-22T04:46:08.398Z,100775.00
2023-04-22T04:48:36.345Z,100765.00
2023-04-22T04:51:04.435Z,100777.00
2023-04-22T04:53:31.281Z,100783.00
2023-04-22T04:55:58.064Z,100784.00
2023-04-22T04:58:24.890Z,100783.00
2023-04-22T05:00:51.783Z,100787.00
2023-04-22T05:03:18.589Z,100787.00
2023-04-22T05:05:48.329Z,100784.00
2023-04-22T05:08:15.272Z,100789.00
2023-04-22T05:10:42.682Z,100785.00
2023-04-22T05:13:09.434Z,100791.00
2023-04-22T05:15:36.396Z,100793.00
2023-04-22T05:18:04.515Z,100798.00
2023-04-22T05:20:32.642Z,100800.00
2023-04-22T05:23:01.429Z,100818.00
2023-04-22T05:25:33.530Z,100798.00
2023-04-22T05:28:00.324Z,100816.00
2023-04-22T05:30:29.613Z,100807.00
2023-04-22T05:32:56.506Z,100816.00
2023-04-22T05:35:23.347Z,100817.00
2023-04-22T05:37:50.402Z,100821.00
2023-04-22T05:40:17.176Z,100816.00
2023-04-22T05:42:44.015Z,100811.00
2023-04-22T05:45:11.116Z,100795.00
2023-04-22T05:47:37.953Z,100799.00
2023-04-22T05:50:05.110Z,100804.00
2023-04-22T05:52:31.903Z,100796.00
2023-04-22T05:54:58.641Z,100818.00
2023-04-22T05:57:25.826Z,100809.00
2023-04-22T05:59:57.472Z,100816.00
2023-04-22T06:02:27.331Z,100821.00
2023-04-22T06:04:54.566Z,100818.00
2023-04-22T06:07:21.619Z,100822.00
2023-04-22T06:09:48.410Z,100823.00
2023-04-22T06:12:15.409Z,100824.00
2023-04-22T06:14:42.213Z,100814.00
2023-04-22T06:17:09.680Z,100819.00
2023-04-22T06:19:37.259Z,100821.00
2023-04-22T06:22:04.260Z,100825.00
2023-04-22T06:24:31.318Z,100833.00
2023-04-22T06:26:58.267Z,100836.00
2023-04-22T06:29:25.169Z,100849.00
2023-04-22T06:31:53.450Z,100850.00
2023-04-22T06:34:20.359Z,100843.00
2023-04-22T06:36:47.136Z,100838.00
2023-04-22T06:39:13.943Z,100830.00
2023-04-22T06:41:42.216Z,100831.00
2023-04-22T06:44:09.016Z,100823.00
2023-04-22T06:46:35.936Z,100817.00
2023-04-22T06:49:02.703Z,100831.00
2023-04-22T06:51:29.467Z,100844.00
2023-04-22T06:53:58.193Z,100829.00
2023-04-22T06:56:25.728Z,100836.00
2023-04-22T06:58:52.581Z,100833.00
2023-04-22T07:01:19.384Z,100821.00
2023-04-22T07:03:46.334Z,100822.00
2023-04-22T07:06:13.248Z,100825.00
2023-04-22T07:08:39.995Z,100818.00
2023-04-22T07:11:06.798Z,100809.00
2023-04-22T07:13:34.203Z,100813.00
2023-04-22T07:16:01.353Z,100812.00
2023-04-22T07:18:29.046Z,100814.00
2023-04-22T07:20:55.898Z,100803.00
2023-04-22T07:23:22.637Z,100811.00
2023-04-22T07:25:49.508Z,100799.00
2023-04-22T07:28:24.393Z,100791.00
2023-04-22T07:31:15.482Z,100797.00
2023-04-22T07:33:42.421Z,100805.00
2023-04-22T07:36:09.214Z,100803.00
2023-04-22T07:38:36.416Z,100821.00
2023-04-22T07:41:03.174Z,100811.00
2023-04-22T07:43:30.318Z,100819.00
2023-04-22T07:45:57.527Z,100811.00
2023-04-22T07:48:24.381Z,100817.00
2023-04-22T07:50:51.251Z,100822.00
2023-04-22T07:53:18.114Z,100806.00
2023-04-22T07:55:45.217Z,100798.00
2023-04-22T07:58:12.311Z,100816.00
2023-04-22T08:00:39.274Z,100821.00
2023-04-22T08:03:06.524Z,100813.00
2023-04-22T08:05:33.656Z,100816.00
2023-04-22T08:08:00.460Z,100816.00
2023-04-22T08:10:28.884Z,100816.00
2023-04-22T08:12:58.147Z,100823.00
2023-04-22T08:15:25.560Z,100821.00
2023-04-22T08:17:52.561Z,100806.00
2023-04-22T08:20:22.219Z,100801.00
2023-04-22T08:23:00.172Z,100801.00
2023-04-22T08:27:55.187Z,100792.00
2023-04-22T08:30:22.355Z,100798.00
2023-04-22T08:32:49.405Z,100794.00
2023-04-22T08:35:16.364Z,100771.00
2023-04-22T08:37:43.237Z,100797.00
2023-04-22T08:40:10.268Z,100785.00
2023-04-22T08:42:37.574Z,100773.00
2023-04-22T08:45:04.996Z,100775.00
2023-04-22T08:47:35.587Z,100777.00
2023-04-22T08:50:03.918Z,100778.00
2023-04-22T08:52:31.373Z,100777.00
2023-04-22T14:56:36.757Z,100442.00
2023-04-22T14:59:03.856Z,100439.00
2023-04-22T15:01:31.669Z,100425.00
2023-04-22T15:03:59.094Z,100428.00
2023-04-22T15:06:27.547Z,100422.00
2023-04-22T15:08:56.000Z,100403.00
2023-04-22T15:11:22.862Z,100425.00
2023-04-22T15:13:49.699Z,100403.00
2023-04-22T15:16:18.783Z,100420.00
2023-04-22T15:18:45.809Z,100399.00
2023-04-22T15:21:12.672Z,100403.00
2023-04-22T15:23:39.522Z,100415.00
2023-04-22T15:26:06.409Z,100405.00
2023-04-22T15:28:33.787Z,100404.00
2023-04-22T15:31:01.964Z,100372.00
2023-04-22T15:33:29.055Z,100373.00
2023-04-22T15:35:55.976Z,100376.00
2023-04-22T15:38:23.682Z,100368.00
2023-04-22T15:40:50.656Z,100364.00
2023-04-22T15:43:17.445Z,100365.00
2023-04-22T15:45:44.758Z,100354.00
2023-04-22T15:48:11.605Z,100340.00
2023-04-22T15:50:40.742Z,100341.00
2023-04-22T15:53:07.746Z,100338.00
2023-04-22T15:55:34.678Z,100349.00
2023-04-22T15:58:02.743Z,100315.00
2023-04-22T16:00:29.766Z,100333.00
2023-04-22T16:02:56.782Z,100311.00
2023-04-22T16:05:25.060Z,100311.00
2023-04-22T16:07:55.788Z,100318.00
2023-04-22T16:10:23.290Z,100294.00
2023-04-22T16:12:51.781Z,100313.00
2023-04-22T16:15:18.629Z,100306.00
2023-04-22T16:17:45.626Z,100294.00
2023-04-22T16:20:12.483Z,100295.00
